Flight Track Log - Related Links

Times and Time Zones

All times are in EST time to prevent confusion due to time zone crossing. See the N27XP flight status page for this flight to view local times or setup timezone preferences in your user account.


Time Position Orientation Groundspeed Altitude Reporting Facility
EST Latitude Longitude Course Direction KTS MPH feet Rate Location/Type
Wed 09:39:41 PM 40.6950 -75.5253 237° Southwest 171 197 5,500  Level New York Center
Wed 09:40:41 PM 40.6467 -75.5875 224° Southwest 150 173 8,200 2,950 Climbing New York Center
Wed 09:41:41 PM 40.5867 -75.6764 228° Southwest 270 311 11,400 2,600 Climbing New York Center
Wed 09:42:41 PM 40.5225 -75.7647 226° Southwest 318 366 13,400 2,100 Climbing New York Center
Wed 09:43:41 PM 40.4542 -75.8525 224° Southwest 345 397 15,600 2,150 Climbing New York Center
Wed 09:44:00 PM 40.1375 -75.8466 237° Southwest  Level Estimated
Wed 09:44:41 PM 40.3900 -75.9403 226° Southwest 362 417 17,700  Level New York Center
Wed 09:45:41 PM 40.3106 -76.0406 224° Southwest 362 417 19,300 1,650 Climbing New York Center
Wed 09:46:41 PM 40.2397 -76.1303 224° Southwest 362 417 21,000 1,500 Climbing New York Center
Wed 09:47:41 PM 40.1819 -76.2075 226° Southwest 362 417 22,300 1,500 Climbing New York Center
Wed 09:48:41 PM 40.1064 -76.3100 226° Southwest 362 417 24,000 1,600 Climbing New York Center
Wed 09:49:41 PM 40.0331 -76.4072 225° Southwest 367 422 25,500 1,500 Climbing New York Center
Wed 09:50:41 PM 39.9614 -76.5100 228° Southwest 378 435 27,000 1,450 Climbing New York Center
Wed 09:51:41 PM 39.8919 -76.6097 228° Southwest 378 435 28,400 1,433 Climbing New York Center
Wed 09:52:55 PM 39.8042 -76.7314 227° Southwest 373 429 30,200 1,478 Climbing Washington Center
Wed 09:53:55 PM 39.7322 -76.8325 227° Southwest 373 429 31,700 893 Climbing Washington Center
Wed 09:54:56 PM 39.6603 -76.9367 228° Southwest 378 435 32,000 153 Climbing Washington Center
Wed 09:55:53 PM 39.5656 -77.0264 216° Southwest 401 461 32,000  Level Washington Center
Wed 09:56:54 PM 39.4561 -77.1047 209° Southwest 427 491 32,000  Level Washington Center
Wed 09:57:55 PM 39.3531 -77.1806 210° Southwest 437 503 32,000  Level Washington Center
Wed 09:58:56 PM 39.2500 -77.2506 208° Southwest 437 503 32,000  Level Washington Center
Wed 09:59:54 PM 39.1469 -77.3258 210° Southwest 424 488 32,000  Level Washington Center
Wed 10:00:54 PM 39.0436 -77.3983 209° Southwest 424 488 32,000  Level Washington Center
Wed 10:01:56 PM 38.9406 -77.4678 208° Southwest 424 488 32,000  Level Washington Center
Wed 10:02:53 PM 38.8267 -77.5503 209° Southwest 424 488 32,000  Level Washington Center
Wed 10:03:54 PM 38.7339 -77.6169 209° Southwest 430 495 32,000  Level Washington Center
Wed 10:04:55 PM 38.6261 -77.6911 208° Southwest 430 495 32,000  Level Washington Center
Wed 10:05:54 PM 38.5142 -77.7700 209° Southwest 425 489 32,000  Level Washington Center
Wed 10:06:56 PM 38.4108 -77.8414 208° Southwest 425 489 32,000  Level Washington Center
Wed 10:07:56 PM 38.3092 -77.9150 210° Southwest 425 489 32,000  Level Washington Center
Wed 10:08:54 PM 38.2036 -77.9856 208° Southwest 425 489 32,000  Level Washington Center
Wed 10:09:55 PM 38.1019 -78.0564 209° Southwest 425 489 32,000  Level Washington Center
Wed 10:10:54 PM 37.9964 -78.1267 208° Southwest 425 489 32,000  Level Washington Center
Wed 10:11:54 PM 37.9053 -78.1947 211° Southwest 425 489 32,000  Level Washington Center
Wed 10:12:55 PM 37.7847 -78.2719 207° Southwest 430 495 32,000  Level Washington Center
Wed 10:13:55 PM 37.6744 -78.3467 208° Southwest 437 503 32,000  Level Washington Center
Wed 10:14:56 PM 37.5683 -78.4214 209° Southwest 437 503 32,000 -101 Level Washington Center
Wed 10:15:54 PM 37.4583 -78.4933 207° Southwest 442 509 31,800 -555 Descending Washington Center
Wed 10:16:55 PM 37.3481 -78.5675 208° Southwest 442 509 30,900 -843 Descending Washington Center
Wed 10:17:55 PM 37.2503 -78.6342 208° Southwest 448 516 30,100 -446 Descending Washington Center
Wed 10:18:56 PM 37.1400 -78.7053 207° Southwest 448 516 30,000 -51 Descending Washington Center
Wed 10:19:53 PM 37.0297 -78.7789 208° Southwest 448 516 30,000  Level Washington Center
Wed 10:20:54 PM 36.9192 -78.8522 208° Southwest 448 516 30,000 -49 Level Washington Center
Wed 10:21:55 PM 36.8086 -78.9256 208° Southwest 448 516 29,900 -738 Descending Washington Center
Wed 10:22:56 PM 36.6981 -78.9958 207° Southwest 448 516 28,500 -1,714 Descending Washington Center
Wed 10:23:54 PM 36.5653 -79.0469 197° South 448 516 26,500 -1,881 Descending Washington Center
Wed 10:24:54 PM 36.4414 -79.0775 191° South 454 522 24,800 -1,250 Descending Washington Center
Wed 10:25:54 PM 36.3214 -79.1083 192° South 454 522 24,000 -595 Descending Washington Center
Wed 10:26:55 PM 36.2019 -79.1314 189° South 449 517 23,600 -1,438 Descending Washington Center
Wed 10:27:55 PM 36.0822 -79.1542 189° South 449 517 21,100 -2,750 Descending Washington Center
Wed 10:28:55 PM 35.9625 -79.1797 190° South 444 511 18,100 -2,850 Descending Washington Center
Wed 10:29:55 PM 35.8492 -79.1975 187° South 439 505 15,400 -2,727 Descending Washington Center
Wed 10:30:56 PM 35.7589 -79.2164 190° South 386 444 12,600 -2,218 Descending Washington Center
Wed 10:31:54 PM 35.6583 -79.2375 190° South 345 397 11,000 -1,627 Descending Washington Center
Wed 10:32:54 PM 35.5931 -79.2497 189° South 285 328 9,400 -2,050 Descending Washington Center
Wed 10:33:54 PM 35.5050 -79.2686 190° South 278 320 6,900 -2,331 Descending Washington Center
Wed 10:34:55 PM 35.4358 -79.2783 187° South 278 320 4,700 -1,240 Descending Washington Center
Wed 10:35:55 PM 35.3475 -79.2972 190° South 278 320 4,400 1,636 Descending Washington Center
Wed 10:36:56 PM 35.2700 -79.3114 188° South 278 320 8,000 1,785 Climbing Washington Center
Wed 10:37:56 PM 35.1900 -79.3281 190° South 278 320 8,000  Level Washington Center
Wed 10:38:55 PM 35.1756 -79.3300 186° South 278 320 8,000  Level Washington Center
Wed 10:39:55 PM 35.1756 -79.3300 180° South 278 320 8,000  Level Washington Center

Login

Don't have an account? Register now (free) for customized features, flight alerts, and more!